createdAt,value
2019-06-27T00:00:51.038Z,24.11
2019-06-27T00:01:51.101Z,24.00
2019-06-27T00:02:51.022Z,24.04
2019-06-27T00:03:51.012Z,24.04
2019-06-27T00:04:51.041Z,24.08
2019-06-27T00:05:50.994Z,24.05
2019-06-27T00:06:50.966Z,24.05
2019-06-27T00:07:51.018Z,24.08
2019-06-27T00:08:50.943Z,24.08
2019-06-27T00:09:50.936Z,24.05
2019-06-27T00:10:50.978Z,24.04
2019-06-27T00:11:50.911Z,24.09
2019-06-27T00:12:50.924Z,23.97
2019-06-27T00:13:50.937Z,24.08
2019-06-27T00:14:50.889Z,24.05
2019-06-27T00:15:50.925Z,24.04
2019-06-27T00:16:50.877Z,23.99
2019-06-27T00:17:50.917Z,23.96
2019-06-27T00:18:50.836Z,23.94
2019-06-27T00:19:50.883Z,24.00
2019-06-27T00:20:50.829Z,23.93
2019-06-27T00:21:50.801Z,23.92
2019-06-27T00:22:50.823Z,23.92
2019-06-27T00:23:50.790Z,23.99
2019-06-27T00:24:50.798Z,23.99
2019-06-27T00:25:50.802Z,23.97
2019-06-27T00:26:56.944Z,23.92
2019-06-27T00:27:52.043Z,23.93
2019-06-27T00:28:50.748Z,23.82
2019-06-27T00:29:50.715Z,23.86
2019-06-27T00:30:50.747Z,23.82
2019-06-27T00:31:50.692Z,23.79
2019-06-27T00:32:50.681Z,23.87
2019-06-27T00:33:50.715Z,23.69
2019-06-27T00:34:50.688Z,23.74
2019-06-27T00:35:50.662Z,23.71
2019-06-27T00:36:50.637Z,23.62
2019-06-27T00:37:50.628Z,23.72
2019-06-27T00:38:50.632Z,23.63
2019-06-27T00:39:50.661Z,23.68
2019-06-27T00:40:50.595Z,23.71
2019-06-27T00:41:50.620Z,23.69
2019-06-27T00:42:50.609Z,23.56
2019-06-27T00:43:50.580Z,23.59
2019-06-27T00:44:50.574Z,23.54
2019-06-27T00:45:50.595Z,23.56
2019-06-27T00:46:50.530Z,23.50
2019-06-27T00:47:50.517Z,23.54
2019-06-27T00:48:50.563Z,23.57
2019-06-27T00:49:50.505Z,23.52
2019-06-27T00:50:50.537Z,23.56
2019-06-27T00:51:50.475Z,23.57
2019-06-27T00:52:50.476Z,23.52
2019-06-27T00:53:50.515Z,23.54
2019-06-27T00:54:50.442Z,23.53
2019-06-27T00:55:50.432Z,23.50
2019-06-27T00:56:50.433Z,23.44
2019-06-27T00:57:50.431Z,23.39
2019-06-27T00:58:50.444Z,23.44
2019-06-27T00:59:50.436Z,23.47
2019-06-27T01:00:50.393Z,23.42
2019-06-27T01:01:50.365Z,23.41
2019-06-27T01:02:50.364Z,23.38
2019-06-27T01:03:50.395Z,23.39
2019-06-27T01:04:50.354Z,23.42
2019-06-27T01:05:50.328Z,23.41
2019-06-27T01:06:50.312Z,23.44
2019-06-27T01:07:50.303Z,23.34
2019-06-27T01:08:50.304Z,23.38
2019-06-27T01:09:50.278Z,23.29
2019-06-27T01:10:50.267Z,23.32
2019-06-27T01:11:50.269Z,23.42
2019-06-27T01:12:50.268Z,23.29
2019-06-27T01:13:50.315Z,23.32
2019-06-27T01:14:50.261Z,23.32
2019-06-27T01:15:50.242Z,23.39
2019-06-27T01:16:50.234Z,23.38
2019-06-27T01:17:50.251Z,23.26
2019-06-27T01:18:50.208Z,23.29
2019-06-27T01:19:50.172Z,23.34
2019-06-27T01:20:50.183Z,23.32
2019-06-27T01:21:50.206Z,23.35
2019-06-27T01:22:50.140Z,23.29
2019-06-27T01:23:50.211Z,23.19
2019-06-27T01:24:50.117Z,23.22
2019-06-27T01:25:50.123Z,23.18
2019-06-27T01:26:50.121Z,23.15
2019-06-27T01:27:50.101Z,23.12
2019-06-27T01:28:50.097Z,23.14
2019-06-27T01:29:50.078Z,23.16
2019-06-27T01:30:50.071Z,23.18
2019-06-27T01:31:50.088Z,23.15
2019-06-27T01:32:50.052Z,23.14
2019-06-27T01:33:50.091Z,23.03
2019-06-27T01:34:50.035Z,23.14
2019-06-27T01:35:50.010Z,23.04
2019-06-27T01:36:50.035Z,23.03
2019-06-27T01:37:50.219Z,23.00
2019-06-27T01:38:49.980Z,23.03
2019-06-27T01:39:49.953Z,23.03
2019-06-27T01:40:49.960Z,22.97
2019-06-27T01:41:49.941Z,22.89
2019-06-27T01:42:49.924Z,22.89
2019-06-27T01:43:52.403Z,22.94
2019-06-27T01:44:49.900Z,22.85
2019-06-27T01:45:49.897Z,22.94
2019-06-27T01:46:49.882Z,22.91
2019-06-27T01:47:49.876Z,22.96
2019-06-27T01:48:49.852Z,22.93
2019-06-27T01:49:49.856Z,23.00
2019-06-27T01:50:49.873Z,22.91
2019-06-27T01:51:49.824Z,22.91
2019-06-27T01:52:49.807Z,22.94
2019-06-27T01:53:49.834Z,22.88
2019-06-27T01:54:49.840Z,22.91
2019-06-27T01:55:49.797Z,22.91
2019-06-27T01:56:49.820Z,22.84
2019-06-27T01:57:49.790Z,22.88
2019-06-27T01:58:49.757Z,22.81
2019-06-27T01:59:49.800Z,22.85
2019-06-27T02:00:49.725Z,22.75
2019-06-27T02:01:49.754Z,22.75
2019-06-27T02:02:49.707Z,22.72
2019-06-27T02:03:49.717Z,22.67
2019-06-27T02:04:49.700Z,22.78
2019-06-27T02:05:49.667Z,22.74
2019-06-27T02:06:49.655Z,22.60
2019-06-27T02:07:49.660Z,22.63
2019-06-27T02:08:49.687Z,22.59
2019-06-27T02:09:49.715Z,22.59
2019-06-27T02:10:49.611Z,22.63
2019-06-27T02:11:49.637Z,22.60
2019-06-27T02:12:49.599Z,22.66
2019-06-27T02:13:49.606Z,22.60
2019-06-27T02:14:49.630Z,22.61
2019-06-27T02:15:49.563Z,22.59
2019-06-27T02:16:49.547Z,22.48
2019-06-27T02:17:49.543Z,22.52
2019-06-27T02:18:49.522Z,22.51
2019-06-27T02:19:49.567Z,22.57
2019-06-27T02:20:49.524Z,22.51
2019-06-27T02:21:49.489Z,22.49
2019-06-27T02:22:49.484Z,22.56
2019-06-27T02:23:49.473Z,22.57
2019-06-27T02:24:49.482Z,22.59
2019-06-27T02:25:49.466Z,22.56
2019-06-27T02:26:49.436Z,22.54
2019-06-27T02:28:03.041Z,22.56
2019-06-27T02:28:50.411Z,22.51
2019-06-27T02:29:49.412Z,22.48
2019-06-27T02:30:49.408Z,22.44
2019-06-27T02:31:49.504Z,22.46
2019-06-27T02:32:49.369Z,22.48
2019-06-27T02:33:49.359Z,22.42
2019-06-27T02:34:49.350Z,22.56
2019-06-27T02:35:49.354Z,22.54
2019-06-27T02:36:49.334Z,22.44
2019-06-27T02:37:49.338Z,22.44
2019-06-27T02:38:49.319Z,22.41
2019-06-27T02:39:49.291Z,22.35
2019-06-27T02:40:49.302Z,22.44
2019-06-27T02:41:49.282Z,22.39
2019-06-27T02:42:49.275Z,22.33
2019-06-27T02:43:49.247Z,22.33
2019-06-27T02:44:49.255Z,22.26
2019-06-27T02:45:49.243Z,22.31
2019-06-27T02:46:49.213Z,22.33
2019-06-27T02:47:49.202Z,22.36
2019-06-27T02:48:49.192Z,22.36
2019-06-27T02:49:50.567Z,22.33
2019-06-27T02:50:49.235Z,22.33
2019-06-27T02:51:49.162Z,22.31
2019-06-27T02:52:49.154Z,22.31
2019-06-27T02:53:49.136Z,22.33
2019-06-27T02:54:49.125Z,22.31
2019-06-27T02:55:49.134Z,22.26
2019-06-27T02:56:49.131Z,22.29
2019-06-27T02:57:49.091Z,22.29
2019-06-27T02:58:49.083Z,22.35
2019-06-27T02:59:49.070Z,22.26
2019-06-27T03:00:49.082Z,22.23
2019-06-27T03:01:49.048Z,22.31
2019-06-27T03:02:49.059Z,22.27
2019-06-27T03:03:49.028Z,22.29
2019-06-27T03:04:49.015Z,22.19
2019-06-27T03:05:49.019Z,22.17
2019-06-27T03:06:48.993Z,22.21
2019-06-27T03:07:48.983Z,22.20
2019-06-27T03:08:49.005Z,22.20
2019-06-27T03:09:48.958Z,22.20
2019-06-27T03:10:48.964Z,22.08
2019-06-27T03:11:48.937Z,22.05
2019-06-27T03:12:48.930Z,22.12
2019-06-27T03:13:48.914Z,22.08
2019-06-27T03:14:48.922Z,22.15
2019-06-27T03:15:48.926Z,22.06
2019-06-27T03:16:48.886Z,22.08
2019-06-27T03:17:48.872Z,22.08
2019-06-27T03:18:48.858Z,22.15
2019-06-27T03:19:48.852Z,22.02
2019-06-27T03:20:48.847Z,22.08
2019-06-27T03:21:48.841Z,22.04
2019-06-27T03:22:48.815Z,22.04
2019-06-27T03:23:48.802Z,21.98
2019-06-27T03:24:48.791Z,22.04
2019-06-27T03:25:48.781Z,21.99
2019-06-27T03:26:48.811Z,22.01
2019-06-27T03:27:48.765Z,22.02
2019-06-27T03:28:52.953Z,21.94
2019-06-27T03:29:49.736Z,22.02
2019-06-27T03:30:48.790Z,22.01
2019-06-27T03:31:48.744Z,21.93
2019-06-27T03:32:48.888Z,22.02
2019-06-27T03:33:48.694Z,21.90
2019-06-27T03:34:48.682Z,21.90
2019-06-27T03:35:48.673Z,21.90
2019-06-27T03:36:48.674Z,21.81
2019-06-27T03:37:48.649Z,21.90
2019-06-27T03:38:48.654Z,21.85
2019-06-27T03:39:48.661Z,21.85
2019-06-27T03:40:48.617Z,22.01
2019-06-27T03:41:48.619Z,21.93
2019-06-27T03:42:48.617Z,21.99
2019-06-27T03:43:48.585Z,22.11
2019-06-27T03:44:48.570Z,22.09
2019-06-27T03:45:48.561Z,22.06
2019-06-27T03:46:48.584Z,22.20
2019-06-27T03:47:48.544Z,22.21
2019-06-27T03:48:48.529Z,22.31
2019-06-27T03:49:48.518Z,22.33
2019-06-27T03:50:48.508Z,22.41
2019-06-27T03:51:48.513Z,22.33
2019-06-27T03:52:48.484Z,22.44
2019-06-27T03:53:48.495Z,22.46
2019-06-27T03:54:48.460Z,22.56
2019-06-27T03:55:48.448Z,22.57
2019-06-27T03:56:48.452Z,22.56
2019-06-27T03:57:48.427Z,22.60
2019-06-27T03:58:48.423Z,22.66
2019-06-27T03:59:48.439Z,22.60
2019-06-27T04:00:48.399Z,22.67
2019-06-27T04:01:48.396Z,22.74
2019-06-27T04:02:48.383Z,22.81
2019-06-27T04:03:48.363Z,22.72
2019-06-27T04:04:48.350Z,22.84
2019-06-27T04:05:48.347Z,22.89
2019-06-27T04:06:48.354Z,22.86
2019-06-27T04:07:48.318Z,22.91
2019-06-27T04:08:48.311Z,23.03
2019-06-27T04:09:48.293Z,23.00
2019-06-27T04:10:48.291Z,23.06
2019-06-27T04:11:48.289Z,23.11
2019-06-27T04:12:48.261Z,23.07
2019-06-27T04:13:48.258Z,23.14
2019-06-27T04:14:48.239Z,23.15
2019-06-27T04:15:48.272Z,23.21
2019-06-27T04:16:49.422Z,23.22
2019-06-27T04:17:48.221Z,23.18
2019-06-27T04:18:48.198Z,23.25
2019-06-27T04:19:48.185Z,23.22
2019-06-27T04:20:48.174Z,23.22
2019-06-27T04:21:48.162Z,23.22
2019-06-27T04:22:48.177Z,23.22
2019-06-27T04:23:48.144Z,23.23
2019-06-27T04:24:48.139Z,23.26
2019-06-27T04:25:48.119Z,23.25
2019-06-27T04:26:48.107Z,23.34
2019-06-27T04:27:48.113Z,23.34
2019-06-27T04:28:48.091Z,23.25
2019-06-27T04:29:48.077Z,23.29
2019-06-27T04:30:48.065Z,23.26
2019-06-27T04:31:48.051Z,23.25
2019-06-27T04:32:48.057Z,23.23
2019-06-27T04:33:48.032Z,23.26
2019-06-27T04:34:48.025Z,23.26
2019-06-27T04:35:48.023Z,23.26
2019-06-27T04:36:47.997Z,23.37
2019-06-27T04:37:48.000Z,23.26
2019-06-27T04:38:47.978Z,23.23
2019-06-27T04:39:47.965Z,23.34
2019-06-27T04:40:47.967Z,23.39
2019-06-27T04:41:47.946Z,23.32
2019-06-27T04:42:47.948Z,23.34
2019-06-27T04:43:47.941Z,23.38
2019-06-27T04:44:47.915Z,23.34
2019-06-27T04:45:47.902Z,23.38
2019-06-27T04:46:47.901Z,23.34
2019-06-27T04:47:47.895Z,23.37
2019-06-27T04:48:47.892Z,23.39
2019-06-27T04:49:47.858Z,23.39
2019-06-27T04:50:47.850Z,23.35
2019-06-27T04:51:47.835Z,23.47
2019-06-27T04:52:47.838Z,23.50
2019-06-27T04:53:47.826Z,23.47
2019-06-27T04:54:47.802Z,23.52
2019-06-27T04:55:47.789Z,23.56
2019-06-27T04:56:47.808Z,23.50
2019-06-27T04:57:47.783Z,23.52
2019-06-27T04:58:47.757Z,23.54
2019-06-27T04:59:54.077Z,23.47
2019-06-27T05:00:48.736Z,23.52
2019-06-27T05:01:47.729Z,23.59
2019-06-27T05:02:47.730Z,23.59
2019-06-27T05:03:47.704Z,23.62
2019-06-27T05:04:47.698Z,23.52
2019-06-27T05:05:47.797Z,23.56
2019-06-27T05:06:47.670Z,23.53
2019-06-27T05:07:47.677Z,23.59
2019-06-27T05:08:47.648Z,23.52
2019-06-27T05:09:47.637Z,23.52
2019-06-27T05:10:47.627Z,23.53
2019-06-27T05:11:47.626Z,23.50
2019-06-27T05:12:47.622Z,23.52
2019-06-27T05:13:47.594Z,23.52
2019-06-27T05:14:47.585Z,23.56
2019-06-27T05:15:47.573Z,23.50
2019-06-27T05:16:47.562Z,23.53
2019-06-27T05:17:47.575Z,23.56
2019-06-27T05:18:47.540Z,23.56
2019-06-27T05:19:47.529Z,23.52
2019-06-27T05:20:47.533Z,23.54
2019-06-27T05:21:47.508Z,23.62
2019-06-27T05:22:47.511Z,23.52
2019-06-27T05:23:47.494Z,23.53
2019-06-27T05:24:47.475Z,23.49
2019-06-27T05:25:47.464Z,23.56
2019-06-27T05:26:47.452Z,23.52
2019-06-27T05:27:47.456Z,23.49
2019-06-27T05:28:47.437Z,23.39
2019-06-27T05:29:47.432Z,23.52
2019-06-27T05:30:51.231Z,23.39
2019-06-27T05:31:47.428Z,23.44
2019-06-27T05:32:47.408Z,23.41
2019-06-27T05:33:47.377Z,23.52
2019-06-27T05:34:47.366Z,23.57
2019-06-27T05:35:47.369Z,23.49
2019-06-27T05:36:47.347Z,23.52
2019-06-27T05:37:47.333Z,23.52
2019-06-27T05:38:47.335Z,23.57
2019-06-27T05:39:47.310Z,23.56
2019-06-27T05:40:47.298Z,23.53
2019-06-27T05:41:50.388Z,23.59
2019-06-27T05:42:47.277Z,23.53
2019-06-27T05:43:47.281Z,23.52
2019-06-27T05:44:47.254Z,23.53
2019-06-27T05:45:47.244Z,23.53
2019-06-27T05:46:47.233Z,23.57
2019-06-27T05:47:47.227Z,23.60
2019-06-27T05:48:47.223Z,23.63
2019-06-27T05:49:47.201Z,23.64
2019-06-27T05:50:47.257Z,23.67
2019-06-27T05:51:47.179Z,23.68
2019-06-27T05:52:47.167Z,23.74
2019-06-27T05:53:47.181Z,23.75
2019-06-27T05:54:47.145Z,23.77
2019-06-27T05:55:47.136Z,23.67
2019-06-27T05:56:47.124Z,23.72
2019-06-27T05:57:47.116Z,23.79
2019-06-27T05:58:47.124Z,23.79
2019-06-27T05:59:47.098Z,23.81
2019-06-27T06:00:47.099Z,23.86
2019-06-27T06:01:47.081Z,23.92
2019-06-27T06:02:47.063Z,23.74
2019-06-27T06:03:47.061Z,23.89
2019-06-27T06:04:47.037Z,23.92
2019-06-27T06:05:47.037Z,23.89
2019-06-27T06:06:47.015Z,23.92
2019-06-27T06:07:47.004Z,23.93
2019-06-27T06:08:47.007Z,24.00
2019-06-27T06:09:46.984Z,23.96
2019-06-27T06:10:46.973Z,23.94
2019-06-27T06:11:46.973Z,23.93
2019-06-27T06:12:46.949Z,24.00
2019-06-27T06:13:46.958Z,23.96
2019-06-27T06:14:46.929Z,24.00
2019-06-27T06:15:46.919Z,24.06
2019-06-27T06:16:46.905Z,24.02
2019-06-27T06:17:46.906Z,24.08
2019-06-27T06:18:46.898Z,24.04
2019-06-27T06:19:46.874Z,24.04
2019-06-27T06:20:46.864Z,24.11
2019-06-27T06:21:46.854Z,24.09
2019-06-27T06:22:46.842Z,24.12
2019-06-27T06:23:46.867Z,24.12
2019-06-27T06:24:46.821Z,24.09
2019-06-27T06:25:46.808Z,24.12
2019-06-27T06:26:46.799Z,24.18
2019-06-27T06:27:46.789Z,24.21
2019-06-27T06:28:46.815Z,24.24
2019-06-27T06:29:46.775Z,24.18
2019-06-27T06:30:46.754Z,24.14
2019-06-27T06:31:49.328Z,24.26
2019-06-27T06:32:46.734Z,24.23
2019-06-27T06:33:46.742Z,24.21
2019-06-27T06:34:46.716Z,24.27
2019-06-27T06:35:46.712Z,24.31
2019-06-27T06:36:46.689Z,24.26
2019-06-27T06:37:46.681Z,24.26
2019-06-27T06:38:46.686Z,24.30
2019-06-27T06:39:46.657Z,24.33
2019-06-27T06:40:46.645Z,24.29
2019-06-27T06:41:46.641Z,24.27
2019-06-27T06:42:46.624Z,24.26
2019-06-27T06:43:46.630Z,24.33
2019-06-27T06:44:46.604Z,24.34
2019-06-27T06:45:46.591Z,24.37
2019-06-27T06:46:46.581Z,24.41
2019-06-27T06:47:46.577Z,24.34
2019-06-27T06:48:46.575Z,24.34
2019-06-27T06:49:46.562Z,24.36
2019-06-27T06:50:46.539Z,24.37
2019-06-27T06:51:46.525Z,24.39
2019-06-27T06:52:46.517Z,24.37
2019-06-27T06:53:46.526Z,24.45
2019-06-27T06:54:46.495Z,24.42
2019-06-27T06:55:46.483Z,24.46
2019-06-27T06:56:46.474Z,24.45
2019-06-27T06:57:46.478Z,24.44
2019-06-27T06:58:46.464Z,24.45
2019-06-27T06:59:46.451Z,24.44
2019-06-27T07:01:00.368Z,24.45
2019-06-27T07:01:47.417Z,24.52
2019-06-27T07:02:46.408Z,24.48
2019-06-27T07:03:46.451Z,24.46
2019-06-27T07:04:46.387Z,24.42
2019-06-27T07:05:46.388Z,24.44
2019-06-27T07:06:46.364Z,24.44
2019-06-27T07:07:46.360Z,24.46
2019-06-27T07:08:46.346Z,24.45
2019-06-27T07:09:46.350Z,24.59
2019-06-27T07:10:46.321Z,24.55
2019-06-27T07:11:46.327Z,24.53
2019-06-27T07:12:46.297Z,24.63
2019-06-27T07:13:46.290Z,24.53
2019-06-27T07:14:46.297Z,24.53
2019-06-27T07:15:46.265Z,24.59
2019-06-27T07:16:46.255Z,24.56
2019-06-27T07:17:46.248Z,24.55
2019-06-27T07:18:46.245Z,24.56
2019-06-27T07:19:46.264Z,24.59
2019-06-27T07:20:46.211Z,24.56
2019-06-27T07:21:46.202Z,24.55
2019-06-27T07:22:46.191Z,24.61
2019-06-27T07:23:46.189Z,24.59
2019-06-27T07:24:46.196Z,24.55
2019-06-27T07:25:46.158Z,24.66
2019-06-27T07:26:46.147Z,24.60
2019-06-27T07:27:46.136Z,24.67
2019-06-27T07:28:46.130Z,24.63
2019-06-27T07:29:46.130Z,24.56
2019-06-27T07:30:46.113Z,24.68
2019-06-27T07:31:46.093Z,24.63
2019-06-27T07:32:46.083Z,24.60
2019-06-27T07:33:46.073Z,24.66
2019-06-27T07:34:46.078Z,24.56
2019-06-27T07:35:46.049Z,24.67
2019-06-27T07:36:46.055Z,24.68
2019-06-27T07:37:46.031Z,24.70
2019-06-27T07:38:47.131Z,24.68
2019-06-27T07:39:46.023Z,24.67
2019-06-27T07:40:45.995Z,24.70
2019-06-27T07:41:45.984Z,24.61
2019-06-27T07:42:45.983Z,24.64
2019-06-27T07:43:45.963Z,24.60
2019-06-27T07:44:45.964Z,24.66
2019-06-27T07:45:45.941Z,24.66
2019-06-27T07:46:45.937Z,24.59
2019-06-27T07:47:45.918Z,24.64
2019-06-27T07:48:45.920Z,24.63
2019-06-27T07:49:45.909Z,24.70
2019-06-27T07:50:45.887Z,24.66
2019-06-27T07:51:45.878Z,24.74
2019-06-27T07:52:45.863Z,24.74
2019-06-27T07:53:45.854Z,24.70
2019-06-27T07:54:45.865Z,24.68
2019-06-27T07:55:45.835Z,24.75
2019-06-27T07:56:46.422Z,24.68
2019-06-27T07:57:45.809Z,24.75
2019-06-27T07:58:45.807Z,24.64
2019-06-27T07:59:45.827Z,24.68
2019-06-27T08:00:45.806Z,24.66
2019-06-27T08:01:45.765Z,24.68
2019-06-27T08:02:45.754Z,24.77
2019-06-27T08:03:45.743Z,24.75
2019-06-27T08:04:45.751Z,24.67
2019-06-27T08:05:45.722Z,24.67
2019-06-27T08:06:45.775Z,24.71
2019-06-27T08:07:45.710Z,24.75
2019-06-27T08:08:45.689Z,24.79
2019-06-27T08:09:45.699Z,24.74
2019-06-27T08:10:45.666Z,24.70
2019-06-27T08:11:45.657Z,24.80
2019-06-27T08:12:45.653Z,24.75
2019-06-27T08:13:45.650Z,24.84
2019-06-27T08:14:45.638Z,24.80
2019-06-27T08:15:45.613Z,24.79
2019-06-27T08:16:45.602Z,24.77
2019-06-27T08:17:45.596Z,24.82
2019-06-27T08:18:45.578Z,24.80
2019-06-27T08:19:45.597Z,24.82
2019-06-27T08:20:45.558Z,24.82
2019-06-27T08:21:45.551Z,24.79
2019-06-27T08:22:45.541Z,24.89
2019-06-27T08:23:45.526Z,24.83
2019-06-27T08:24:45.528Z,24.86
2019-06-27T08:25:45.508Z,24.84
2019-06-27T08:26:45.498Z,24.84
2019-06-27T08:27:45.481Z,24.82
2019-06-27T08:28:45.472Z,24.87
2019-06-27T08:29:45.481Z,24.83
2019-06-27T08:30:45.447Z,24.79
2019-06-27T08:31:51.583Z,24.83
2019-06-27T08:32:46.434Z,24.84
2019-06-27T08:33:45.414Z,24.89
2019-06-27T08:34:45.418Z,24.90
2019-06-27T08:35:45.603Z,24.89
2019-06-27T08:36:45.382Z,24.87
2019-06-27T08:37:45.396Z,24.87
2019-06-27T08:38:45.368Z,24.93
2019-06-27T08:39:45.409Z,24.86
2019-06-27T08:40:45.338Z,24.86
2019-06-27T08:41:45.331Z,24.89
2019-06-27T08:42:45.317Z,24.90
2019-06-27T08:43:45.307Z,24.94
2019-06-27T08:44:45.299Z,24.87
2019-06-27T08:45:45.299Z,24.80
2019-06-27T08:46:45.276Z,24.84
2019-06-27T08:47:45.269Z,24.99
2019-06-27T08:48:45.251Z,24.97
2019-06-27T08:49:45.240Z,24.98
2019-06-27T08:50:45.259Z,24.98
2019-06-27T08:51:45.220Z,24.93
2019-06-27T08:52:45.211Z,24.94
2019-06-27T08:53:45.197Z,25.04
2019-06-27T08:54:45.194Z,25.01
2019-06-27T08:55:45.194Z,25.01
2019-06-27T08:56:45.174Z,24.97
2019-06-27T08:57:45.156Z,25.02
2019-06-27T08:58:45.142Z,24.94
2019-06-27T08:59:45.131Z,25.04
2019-06-27T09:00:46.076Z,25.02
2019-06-27T09:01:45.112Z,24.94
2019-06-27T09:02:45.115Z,24.94
2019-06-27T09:03:45.090Z,25.04
2019-06-27T09:04:45.077Z,25.08
2019-06-27T09:05:45.084Z,25.08
2019-06-27T09:06:45.056Z,25.07
2019-06-27T09:07:45.045Z,25.01
2019-06-27T09:08:45.039Z,25.09
2019-06-27T09:09:45.025Z,25.16
2019-06-27T09:10:45.049Z,25.08
2019-06-27T09:11:45.001Z,25.09
2019-06-27T09:12:44.991Z,25.05
2019-06-27T09:13:44.978Z,25.07
2019-06-27T09:14:44.975Z,25.09
2019-06-27T09:15:44.972Z,25.11
2019-06-27T09:16:46.697Z,25.11
2019-06-27T09:17:44.935Z,25.12
2019-06-27T09:18:44.924Z,25.09
2019-06-27T09:19:44.913Z,25.17
2019-06-27T09:20:44.933Z,25.17
2019-06-27T09:21:44.892Z,25.17
2019-06-27T09:22:44.881Z,25.08
2019-06-27T09:23:44.870Z,25.11
2019-06-27T09:24:44.859Z,25.20
2019-06-27T09:25:44.862Z,25.12
2019-06-27T09:26:44.844Z,25.16
2019-06-27T09:27:44.827Z,25.20
2019-06-27T09:28:44.816Z,25.05
2019-06-27T09:29:44.811Z,25.17
2019-06-27T09:30:44.847Z,25.24
2019-06-27T09:31:44.786Z,25.17
2019-06-27T09:32:44.834Z,25.19
2019-06-27T09:33:44.763Z,25.22
2019-06-27T09:34:44.756Z,25.17
2019-06-27T09:35:44.759Z,25.19
2019-06-27T09:36:44.731Z,25.19
2019-06-27T09:37:44.717Z,25.23
2019-06-27T09:38:44.716Z,25.23
2019-06-27T09:39:44.698Z,25.19
2019-06-27T09:40:44.699Z,25.20
2019-06-27T09:41:44.675Z,25.26
2019-06-27T09:42:44.664Z,25.30
2019-06-27T09:43:44.655Z,25.17
2019-06-27T09:44:44.650Z,25.26
2019-06-27T09:45:44.657Z,25.19
2019-06-27T09:46:44.622Z,25.22
2019-06-27T09:47:44.607Z,25.27
2019-06-27T09:48:44.597Z,25.26
2019-06-27T09:49:44.586Z,25.29
2019-06-27T09:50:44.604Z,25.29
2019-06-27T09:51:44.566Z,25.29
2019-06-27T09:52:44.554Z,25.36
2019-06-27T09:53:44.559Z,25.34
2019-06-27T09:54:44.533Z,25.31
2019-06-27T09:55:47.337Z,25.29
2019-06-27T09:56:44.517Z,25.34
2019-06-27T09:57:44.500Z,25.31
2019-06-27T09:58:44.526Z,25.27
2019-06-27T09:59:44.486Z,25.34
2019-06-27T10:00:44.508Z,25.35
2019-06-27T10:01:44.456Z,25.34
2019-06-27T10:02:44.451Z,25.36
2019-06-27T10:03:44.437Z,25.44
2019-06-27T10:04:44.423Z,25.31
2019-06-27T10:05:44.413Z,25.35
2019-06-27T10:06:44.416Z,25.36
2019-06-27T10:07:44.391Z,25.39
2019-06-27T10:08:44.386Z,25.39
2019-06-27T10:09:44.370Z,25.34
2019-06-27T10:10:44.360Z,25.38
2019-06-27T10:11:44.361Z,25.42
2019-06-27T10:12:44.336Z,25.41
2019-06-27T10:13:44.341Z,25.44
2019-06-27T10:14:44.323Z,25.44
2019-06-27T10:15:44.305Z,25.42
2019-06-27T10:16:44.310Z,25.46
2019-06-27T10:17:44.282Z,25.44
2019-06-27T10:18:44.272Z,25.45
2019-06-27T10:19:44.268Z,25.44
2019-06-27T10:20:44.270Z,25.45
2019-06-27T10:21:44.254Z,25.48
2019-06-27T10:22:44.226Z,25.46
2019-06-27T10:23:44.216Z,25.53
2019-06-27T10:24:44.206Z,25.56
2019-06-27T10:25:44.196Z,25.48
2019-06-27T10:26:44.339Z,25.46
2019-06-27T10:27:44.177Z,25.54
2019-06-27T10:28:44.162Z,25.49
2019-06-27T10:29:44.151Z,25.54
2019-06-27T10:30:44.146Z,25.54
2019-06-27T10:31:44.156Z,25.44
2019-06-27T10:32:57.744Z,25.46
2019-06-27T10:33:45.108Z,25.54
2019-06-27T10:34:44.103Z,25.45
2019-06-27T10:35:44.092Z,25.54
2019-06-27T10:36:44.090Z,25.60
2019-06-27T10:37:44.076Z,25.54
2019-06-27T10:38:44.069Z,25.46
2019-06-27T10:39:44.046Z,25.57
2019-06-27T10:40:44.036Z,25.53
2019-06-27T10:41:44.037Z,25.60
2019-06-27T10:42:44.019Z,25.56
2019-06-27T10:43:44.000Z,25.56
2019-06-27T10:44:44.009Z,25.54
2019-06-27T10:45:43.979Z,25.59
2019-06-27T10:46:43.984Z,25.56
2019-06-27T10:47:43.960Z,25.61
2019-06-27T10:48:43.946Z,25.59
2019-06-27T10:49:43.942Z,25.61
2019-06-27T10:50:46.471Z,25.60
2019-06-27T10:51:43.944Z,25.63
2019-06-27T10:52:43.904Z,25.66
2019-06-27T10:53:43.896Z,25.63
2019-06-27T10:54:43.887Z,25.60
2019-06-27T10:55:43.889Z,25.61
2019-06-27T10:56:43.866Z,25.71
2019-06-27T10:57:43.872Z,25.59
2019-06-27T10:58:43.837Z,25.63
2019-06-27T10:59:43.828Z,25.61
2019-06-27T11:00:43.817Z,25.63
2019-06-27T11:01:43.812Z,25.63
2019-06-27T11:02:43.825Z,25.69
2019-06-27T11:03:43.858Z,25.72
2019-06-27T11:04:43.772Z,25.67
2019-06-27T11:05:43.761Z,25.69
2019-06-27T11:06:43.752Z,25.75
2019-06-27T11:07:43.756Z,25.72
2019-06-27T11:08:43.742Z,25.67
2019-06-27T11:09:43.719Z,25.63
2019-06-27T11:10:43.712Z,25.69
2019-06-27T11:11:43.726Z,25.72
2019-06-27T11:12:45.088Z,25.67
2019-06-27T11:13:57.901Z,25.66
2019-06-27T11:14:58.297Z,25.69
2019-06-27T11:15:44.744Z,25.74
2019-06-27T11:16:43.643Z,25.69
2019-06-27T11:17:43.652Z,25.66
2019-06-27T11:18:43.622Z,25.66
2019-06-27T11:19:52.252Z,25.69
2019-06-27T11:20:44.608Z,25.78
2019-06-27T11:21:43.590Z,25.71
2019-06-27T11:22:43.593Z,25.82
2019-06-27T11:23:43.569Z,25.78
2019-06-27T11:24:43.556Z,25.76
2019-06-27T11:25:43.555Z,25.81
2019-06-27T11:26:43.544Z,25.81
2019-06-27T11:27:43.538Z,25.83
2019-06-27T11:28:43.514Z,25.83
2019-06-27T11:29:43.504Z,25.83
2019-06-27T11:30:43.495Z,25.85
2019-06-27T11:31:43.480Z,25.82
2019-06-27T11:32:43.493Z,25.85
2019-06-27T11:33:43.462Z,25.83
2019-06-27T11:34:43.450Z,25.81
2019-06-27T11:35:43.438Z,25.83
2019-06-27T11:36:46.470Z,25.83
2019-06-27T11:37:43.451Z,25.91
2019-06-27T11:38:43.413Z,25.83
2019-06-27T11:39:43.395Z,25.85
2019-06-27T11:40:43.383Z,25.91
2019-06-27T11:41:43.382Z,25.91
2019-06-27T11:42:43.363Z,25.97
2019-06-27T11:43:43.376Z,25.91
2019-06-27T11:44:43.357Z,25.97
2019-06-27T11:45:43.337Z,25.94
2019-06-27T11:46:43.335Z,25.96
2019-06-27T11:47:43.311Z,25.94
2019-06-27T11:48:43.357Z,25.97
2019-06-27T11:49:43.287Z,26.00
2019-06-27T11:50:43.287Z,25.98
2019-06-27T11:51:43.267Z,26.01
2019-06-27T11:52:46.890Z,25.98
2019-06-27T11:53:43.258Z,25.97
2019-06-27T11:54:43.233Z,26.03
2019-06-27T11:55:43.223Z,25.97
2019-06-27T11:56:43.218Z,26.03
2019-06-27T11:57:43.201Z,26.00
2019-06-27T11:58:43.208Z,26.06
2019-06-27T11:59:43.178Z,26.03
2019-06-27T12:00:43.167Z,26.01
2019-06-27T12:01:43.223Z,26.04
2019-06-27T12:02:43.164Z,26.08
2019-06-27T12:03:49.443Z,26.04
2019-06-27T12:04:44.122Z,26.12
2019-06-27T12:05:43.112Z,26.08
2019-06-27T12:06:43.101Z,26.06
2019-06-27T12:07:43.091Z,26.09
2019-06-27T12:08:43.103Z,26.08
2019-06-27T12:09:43.070Z,26.12
2019-06-27T12:10:43.059Z,26.11
2019-06-27T12:11:43.048Z,26.09
2019-06-27T12:12:43.056Z,26.13
2019-06-27T12:13:43.042Z,26.11
2019-06-27T12:14:43.026Z,26.16
2019-06-27T12:15:43.004Z,26.16
2019-06-27T12:16:43.005Z,26.12
2019-06-27T12:17:42.983Z,26.20
2019-06-27T12:18:42.991Z,26.19
2019-06-27T12:19:42.963Z,26.12
2019-06-27T12:20:42.962Z,26.16
2019-06-27T12:21:42.940Z,26.21
2019-06-27T12:22:42.930Z,26.19
2019-06-27T12:23:42.934Z,26.24
2019-06-27T12:24:42.907Z,26.17
2019-06-27T12:25:42.898Z,26.20
2019-06-27T12:26:42.892Z,26.19
2019-06-27T12:27:42.874Z,26.21
2019-06-27T12:28:42.877Z,26.16
2019-06-27T12:29:42.854Z,26.24
2019-06-27T12:30:42.843Z,26.23
2019-06-27T12:31:42.841Z,26.20
2019-06-27T12:32:52.017Z,26.29
2019-06-27T12:33:43.829Z,26.20
2019-06-27T12:34:42.799Z,26.29
2019-06-27T12:35:42.787Z,26.29
2019-06-27T12:36:42.778Z,26.28
2019-06-27T12:37:42.766Z,26.29
2019-06-27T12:38:42.783Z,26.29
2019-06-27T12:39:42.745Z,26.27
2019-06-27T12:40:42.734Z,26.38
2019-06-27T12:41:42.742Z,26.38
2019-06-27T12:42:42.714Z,26.34
2019-06-27T12:43:42.718Z,26.35
2019-06-27T12:44:42.706Z,26.29
2019-06-27T12:45:42.682Z,26.32
2019-06-27T12:46:42.668Z,26.35
2019-06-27T12:47:42.736Z,26.36
2019-06-27T12:48:42.671Z,26.28
2019-06-27T12:50:00.556Z,26.34
2019-06-27T12:50:43.634Z,26.32
2019-06-27T12:51:42.617Z,26.36
2019-06-27T12:52:42.605Z,26.34